Time;durP1;ratioP1;P1;durP2;ratioP2;P2;SDS_P1;SDS_P2;PMS_P1;PMS_P2;Temp;Humidity;BMP_temperature;BMP_pressure;BME280_temperature;BME280_humidity;BME280_pressure;Samples;Min_cycle;Max_cycle;Signal;HPM_P1;HPM_P2
2021/06/13 00:01:13;;;;;;;;;10.00;9.67;;;;;27.51;44.04;102017.97;5049922;28;55351;-64
2021/06/13 00:03:39;;;;;;;;;10.00;9.67;;;;;27.49;44.46;102019.88;5042731;28;45213;-64
2021/06/13 00:06:05;;;;;;;;;9.00;7.00;;;;;27.49;44.70;102028.75;5042209;28;45863;-63
2021/06/13 00:08:30;;;;;;;;;6.67;6.00;;;;;27.47;44.20;102019.97;5041145;28;45437;-62
2021/06/13 00:10:56;;;;;;;;;10.33;10.00;;;;;27.47;44.67;102024.41;5042277;28;45356;-64
2021/06/13 00:13:22;;;;;;;;;8.67;7.00;;;;;27.46;44.15;102017.34;5041108;28;45285;-65
2021/06/13 00:15:47;;;;;;;;;11.33;8.67;;;;;27.45;44.16;102019.19;5041653;28;51337;-65
2021/06/13 00:18:13;;;;;;;;;9.67;8.00;;;;;27.45;44.07;102015.63;5042085;28;45473;-65
2021/06/13 00:20:38;;;;;;;;;6.00;6.00;;;;;27.43;44.65;102018.38;5042301;28;45254;-65
2021/06/13 00:23:04;;;;;;;;;10.00;9.00;;;;;27.43;44.00;102020.19;5060796;28;45258;-65
2021/06/13 00:25:29;;;;;;;;;9.00;9.00;;;;;27.41;44.01;102009.59;5044180;28;48402;-65
2021/06/13 00:27:55;;;;;;;;;10.33;10.00;;;;;27.42;44.65;102007.78;5062066;28;45321;-66
2021/06/13 00:30:21;;;;;;;;;7.33;6.00;;;;;27.41;44.32;102008.75;5061950;28;49379;-66
2021/06/13 00:32:46;;;;;;;;;8.00;6.67;;;;;27.39;44.81;102007.00;5061939;28;45665;-66
2021/06/13 00:35:12;;;;;;;;;9.00;9.00;;;;;27.38;44.78;101999.06;5062011;28;46561;-67
2021/06/13 00:37:38;;;;;;;;;9.00;8.00;;;;;27.37;44.83;101998.22;5047701;28;45160;-66
2021/06/13 00:40:05;;;;;;;;;8.00;6.67;;;;;27.37;44.37;102006.22;5041960;28;45285;-66
2021/06/13 00:42:30;;;;;;;;;7.33;6.33;;;;;27.36;44.46;101998.31;5040806;28;45265;-66
2021/06/13 00:44:56;;;;;;;;;10.33;8.00;;;;;27.36;44.92;102001.84;5040978;28;68873;-65
2021/06/13 00:47:21;;;;;;;;;7.33;7.00;;;;;27.34;44.41;102009.06;5041694;28;45374;-64
2021/06/13 00:49:46;;;;;;;;;8.00;7.00;;;;;27.33;44.46;102004.66;5041744;28;52842;-64
2021/06/13 00:52:12;;;;;;;;;7.33;7.33;;;;;27.32;44.19;102008.25;5041976;28;45257;-64
2021/06/13 00:54:37;;;;;;;;;9.33;8.33;;;;;27.32;44.32;102007.41;5040322;28;56350;-62
2021/06/13 00:57:03;;;;;;;;;9.33;9.33;;;;;27.32;44.29;102002.09;5041584;28;45402;-65
2021/06/13 00:59:28;;;;;;;;;9.00;7.00;;;;;27.31;44.36;102000.38;5041894;28;45470;-62
2021/06/13 01:01:54;;;;;;;;;6.00;6.00;;;;;27.31;44.29;102005.69;5043576;28;45431;-63
2021/06/13 01:04:19;;;;;;;;;7.33;6.33;;;;;27.29;44.99;102008.44;5058117;28;59004;-63
2021/06/13 01:07:01;;;;;;;;;8.33;6.33;;;;;27.28;45.03;101998.72;5044558;28;52776;-63
2021/06/13 01:09:29;;;;;;;;;6.00;6.00;;;;;27.29;44.83;102002.25;5045126;28;45301;-63
2021/06/13 01:12:06;;;;;;;;;7.67;7.67;;;;;27.28;44.47;102000.53;5043965;28;45378;-62
2021/06/13 01:14:36;;;;;;;;;8.67;7.67;;;;;27.26;44.39;102000.63;5044690;28;45982;-63
2021/06/13 01:17:31;;;;;;;;;6.33;5.67;;;;;27.26;44.46;102005.06;5043852;28;45398;-64
2021/06/13 01:20:09;;;;;;;;;7.00;7.00;;;;;27.24;44.76;102008.66;5027153;28;45536;-64
2021/06/13 01:23:04;;;;;;;;;5.67;5.67;;;;;27.24;44.82;102005.16;5057205;28;45619;-64
2021/06/13 01:25:48;;;;;;;;;6.67;6.67;;;;;27.22;44.59;102001.72;5044898;28;45311;-65
2021/06/13 01:28:13;;;;;;;;;9.00;7.33;;;;;27.21;45.01;102003.53;5052305;28;45463;-65
2021/06/13 01:30:38;;;;;;;;;7.33;6.33;;;;;27.21;45.11;102013.31;5064848;28;45268;-64
2021/06/13 01:33:09;;;;;;;;;8.67;8.33;;;;;27.21;44.48;102010.66;5064734;28;45556;-64
2021/06/13 01:35:35;;;;;;;;;7.00;7.00;;;;;27.19;44.46;102016.06;5063702;28;46691;-65
2021/06/13 01:38:01;;;;;;;;;8.67;8.67;;;;;27.19;44.56;102013.41;5047191;28;45392;-64
2021/06/13 01:40:33;;;;;;;;;8.00;7.67;;;;;27.18;45.22;102019.66;5026887;28;45379;-67
2021/06/13 01:42:59;;;;;;;;;8.33;8.33;;;;;27.18;44.65;102024.13;5026883;28;45493;-64
2021/06/13 01:45:30;;;;;;;;;6.67;6.67;;;;;27.17;45.11;102017.06;5044114;28;46035;-64
2021/06/13 01:47:55;;;;;;;;;8.00;8.00;;;;;27.17;45.06;102030.38;5043359;28;45318;-64
2021/06/13 01:50:26;;;;;;;;;9.00;8.00;;;;;27.17;44.71;102031.25;5043954;28;57487;-64
2021/06/13 01:52:52;;;;;;;;;8.33;8.33;;;;;27.15;44.78;102021.63;5043557;28;45501;-64
2021/06/13 01:55:19;;;;;;;;;6.33;6.33;;;;;27.15;44.96;102029.63;5044175;28;46056;-64
2021/06/13 01:57:45;;;;;;;;;7.00;7.00;;;;;27.14;45.24;102019.91;5043103;28;45496;-64
2021/06/13 02:00:12;;;;;;;;;6.00;6.00;;;;;27.14;44.76;102022.59;5044220;28;45224;-64
2021/06/13 02:02:38;;;;;;;;;7.33;7.33;;;;;27.13;44.94;102034.19;5043430;28;45486;-64
2021/06/13 02:05:05;;;;;;;;;7.00;7.00;;;;;27.13;44.79;102031.50;5056271;28;45422;-64
2021/06/13 02:07:34;;;;;;;;;6.67;6.67;;;;;27.11;44.71;102033.38;5042715;28;45390;-64
2021/06/13 02:10:01;;;;;;;;;6.00;6.00;;;;;27.10;45.12;102029.00;5060298;28;45361;-64
2021/06/13 02:12:28;;;;;;;;;8.00;7.67;;;;;27.08;45.06;102035.25;5051317;28;45410;-66
2021/06/13 02:14:54;;;;;;;;;8.67;6.33;;;;;27.08;44.86;102037.94;5041759;28;65239;-66
2021/06/13 02:17:19;;;;;;;;;8.00;7.00;;;;;27.06;45.28;102039.81;5042898;28;45357;-66
2021/06/13 02:19:45;;;;;;;;;9.00;9.00;;;;;27.07;45.25;102040.69;5044150;28;45364;-66
2021/06/13 02:22:14;;;;;;;;;7.00;6.00;;;;;27.05;45.07;102051.41;5055539;28;45547;-63
2021/06/13 02:24:41;;;;;;;;;8.00;6.67;;;;;27.05;45.13;102045.22;5062718;28;45594;-63
2021/06/13 02:27:07;;;;;;;;;9.33;8.33;;;;;27.04;45.06;102049.69;5063378;28;45243;-63
2021/06/13 02:29:34;;;;;;;;;6.00;6.00;;;;;27.03;44.74;102042.63;5064015;28;45425;-63
2021/06/13 02:32:00;;;;;;;;;7.00;7.00;;;;;27.04;44.88;102046.16;5062865;28;45358;-63
2021/06/13 02:34:28;;;;;;;;;8.00;7.00;;;;;27.02;44.98;102048.88;5064145;28;45429;-63
2021/06/13 02:36:56;;;;;;;;;6.67;6.67;;;;;27.02;44.55;102053.38;5055970;28;45266;-63
2021/06/13 02:39:22;;;;;;;;;6.67;6.67;;;;;27.02;45.07;102050.69;5044721;28;45577;-63
2021/06/13 02:41:48;;;;;;;;;6.00;6.00;;;;;27.02;44.64;102053.38;5050490;28;45291;-63
2021/06/13 02:44:13;;;;;;;;;6.00;6.00;;;;;27.00;45.21;102052.56;5043441;28;46408;-63
2021/06/13 02:46:39;;;;;;;;;8.33;8.33;;;;;26.99;44.79;102054.41;5043263;28;45228;-63
2021/06/13 02:49:06;;;;;;;;;6.67;6.67;;;;;26.98;44.89;102057.13;5043471;28;45359;-63
2021/06/13 02:51:36;;;;;;;;;6.00;6.00;;;;;26.97;45.05;102058.94;5043929;28;45468;-63
2021/06/13 02:54:05;;;;;;;;;7.00;7.00;;;;;26.97;45.21;102058.94;5061561;28;46364;-63
2021/06/13 02:56:43;;;;;;;;;7.33;7.33;;;;;26.95;45.08;102063.47;5049113;28;45398;-63
2021/06/13 02:59:16;;;;;;;;;8.67;8.67;;;;;26.96;44.96;102070.53;5050420;28;45417;-64
2021/06/13 03:01:47;;;;;;;;;6.00;5.00;;;;;26.95;44.69;102074.13;5062243;28;45412;-63
2021/06/13 03:04:16;;;;;;;;;7.00;6.00;;;;;26.95;44.90;102067.91;5062205;28;45367;-64
2021/06/13 03:06:44;;;;;;;;;6.33;6.33;;;;;26.93;44.73;102076.84;5046556;28;45425;-64
2021/06/13 03:09:10;;;;;;;;;6.00;6.00;;;;;26.93;44.84;102076.00;5043462;28;45416;-64
2021/06/13 03:11:36;;;;;;;;;7.00;6.00;;;;;26.92;45.28;102077.78;5043272;28;45397;-63
2021/06/13 03:14:02;;;;;;;;;6.67;6.00;;;;;26.93;45.40;102078.66;5041704;28;54080;-63
2021/06/13 03:16:28;;;;;;;;;6.67;5.67;;;;;26.92;44.66;102085.78;5041508;28;45197;-63
2021/06/13 03:18:54;;;;;;;;;7.67;6.00;;;;;26.91;45.21;102094.75;5041467;28;53507;-63
2021/06/13 03:21:20;;;;;;;;;7.67;7.67;;;;;26.91;45.18;102086.75;5046994;28;45547;-63
2021/06/13 03:23:47;;;;;;;;;6.00;6.00;;;;;26.90;44.88;102087.69;5061792;28;45443;-63
2021/06/13 03:26:14;;;;;;;;;6.67;5.33;;;;;26.90;45.15;102092.13;5045010;28;45399;-62
2021/06/13 03:28:40;;;;;;;;;6.00;6.00;;;;;26.90;44.70;102102.78;5062037;28;45512;-63
2021/06/13 03:31:06;;;;;;;;;6.67;6.00;;;;;26.89;44.69;102090.41;5062467;28;46153;-63
2021/06/13 03:33:34;;;;;;;;;8.00;8.00;;;;;26.89;45.00;102095.72;5044854;28;47135;-62
2021/06/13 03:36:00;;;;;;;;;9.33;7.33;;;;;26.89;45.09;102096.63;5060962;28;45228;-62
2021/06/13 03:38:27;;;;;;;;;7.00;7.00;;;;;26.87;45.37;102101.16;5032715;28;45434;-62
2021/06/13 03:40:53;;;;;;;;;8.67;6.00;;;;;26.86;45.06;102091.44;5046002;28;45495;-62
2021/06/13 03:43:19;;;;;;;;;7.00;7.00;;;;;26.86;44.96;102098.53;5061576;28;45482;-62
2021/06/13 03:45:46;;;;;;;;;6.33;6.00;;;;;26.85;45.22;102103.00;5061217;28;45764;-63
2021/06/13 03:48:13;;;;;;;;;7.67;7.67;;;;;26.86;45.00;102095.88;5061724;28;45245;-63
2021/06/13 03:50:41;;;;;;;;;6.33;6.00;;;;;26.85;44.55;102097.69;5062990;28;45467;-63
2021/06/13 03:53:07;;;;;;;;;6.67;6.67;;;;;26.83;45.24;102091.56;5062454;28;45401;-67
2021/06/13 03:55:32;;;;;;;;;10.00;8.33;;;;;26.84;45.32;102092.44;5060872;28;57430;-66
2021/06/13 03:57:58;;;;;;;;;8.00;7.00;;;;;26.84;44.53;102092.44;5062787;28;45783;-67
2021/06/13 04:00:26;;;;;;;;;6.67;6.67;;;;;26.83;44.85;102098.72;5060811;28;50263;-67
2021/06/13 04:02:52;;;;;;;;;6.00;6.00;;;;;26.83;44.85;102099.56;5062419;28;46808;-67
2021/06/13 04:05:20;;;;;;;;;12.00;9.00;;;;;26.82;44.87;102103.16;5061572;28;45314;-67
2021/06/13 04:07:45;;;;;;;;;8.67;7.00;;;;;26.82;44.49;102099.66;5042490;28;45341;-64
2021/06/13 04:10:12;;;;;;;;;5.33;5.33;;;;;26.82;44.71;102105.81;5042740;28;45446;-65
2021/06/13 04:12:39;;;;;;;;;5.33;5.33;;;;;26.82;44.58;102104.97;5041116;28;45379;-64
2021/06/13 04:15:06;;;;;;;;;9.00;9.00;;;;;26.81;45.22;102108.56;5041866;28;45310;-62
2021/06/13 04:17:32;;;;;;;;;7.67;7.00;;;;;26.80;44.98;102113.03;5041040;28;45185;-62
2021/06/13 04:19:58;;;;;;;;;12.00;9.00;;;;;26.80;45.15;102117.50;5041190;28;45243;-63
2021/06/13 04:22:23;;;;;;;;;7.00;7.00;;;;;26.80;44.96;102125.50;5053686;28;45966;-63
2021/06/13 04:24:53;;;;;;;;;7.00;7.00;;;;;26.80;44.64;102126.34;5057115;28;45814;-62
2021/06/13 04:27:21;;;;;;;;;8.33;8.00;;;;;26.78;44.99;102118.41;5060134;28;45422;-62
2021/06/13 04:29:47;;;;;;;;;6.67;6.67;;;;;26.77;44.76;102124.66;5055530;28;45380;-62
2021/06/13 04:32:13;;;;;;;;;7.67;7.00;;;;;26.77;45.15;102127.34;5040585;28;45378;-62
2021/06/13 04:34:39;;;;;;;;;6.00;6.00;;;;;26.78;44.56;102125.50;5040828;28;57455;-62
2021/06/13 04:37:06;;;;;;;;;8.00;7.00;;;;;26.78;45.19;102134.38;5049822;28;45304;-62
2021/06/13 04:39:31;;;;;;;;;6.00;6.00;;;;;26.77;44.97;102131.81;5041111;28;45520;-62
2021/06/13 04:41:57;;;;;;;;;7.00;7.00;;;;;26.76;44.66;102130.94;5040377;28;46252;-63
2021/06/13 04:44:22;;;;;;;;;6.00;6.00;;;;;26.76;44.92;102130.09;5042087;28;45472;-63
2021/06/13 04:46:47;;;;;;;;;8.00;6.33;;;;;26.76;44.98;102127.41;5041572;28;47634;-63
2021/06/13 04:49:13;;;;;;;;;8.00;8.00;;;;;26.76;44.35;102138.91;5042027;28;45581;-63
2021/06/13 04:51:39;;;;;;;;;8.33;7.00;;;;;26.75;44.95;102134.53;5041824;28;46243;-63
2021/06/13 04:54:06;;;;;;;;;5.67;5.67;;;;;26.75;44.48;102141.66;5047249;28;45244;-63
2021/06/13 04:56:44;;;;;;;;;8.00;7.33;;;;;26.75;44.88;102142.50;5062097;28;45246;-63
2021/06/13 04:59:09;;;;;;;;;9.00;8.00;;;;;26.75;44.88;102142.50;5062061;28;45418;-62
2021/06/13 05:01:36;;;;;;;;;6.33;5.00;;;;;26.75;44.79;102147.84;5060551;28;71321;-59
2021/06/13 05:04:01;;;;;;;;;7.00;6.00;;;;;26.74;45.06;102143.44;5061953;28;45294;-59
2021/06/13 05:06:27;;;;;;;;;6.67;6.67;;;;;26.74;45.09;102148.78;5051552;28;45331;-61
2021/06/13 05:08:52;;;;;;;;;6.00;6.00;;;;;26.74;45.09;102145.25;5040727;28;45329;-59
2021/06/13 05:11:18;;;;;;;;;7.33;6.33;;;;;26.74;44.79;102147.94;5041302;28;46057;-58
2021/06/13 05:13:44;;;;;;;;;5.67;5.67;;;;;26.75;45.05;102141.66;5040418;28;45263;-60
2021/06/13 05:16:10;;;;;;;;;7.67;7.00;;;;;26.74;44.56;102143.44;5041422;28;45303;-59
2021/06/13 05:18:35;;;;;;;;;9.00;7.00;;;;;26.73;45.07;102144.38;5040668;28;62191;-60
2021/06/13 05:21:02;;;;;;;;;9.67;7.67;;;;;26.73;44.62;102152.38;5041518;28;47223;-59
2021/06/13 05:23:27;;;;;;;;;8.67;8.00;;;;;26.73;44.51;102155.03;5051827;28;45366;-60
2021/06/13 05:25:54;;;;;;;;;8.00;7.67;;;;;26.72;44.95;102158.63;5041967;28;45267;-60
2021/06/13 05:28:22;;;;;;;;;6.33;6.33;;;;;26.72;45.11;102163.09;5061856;28;45455;-62
2021/06/13 05:30:48;;;;;;;;;8.00;7.67;;;;;26.73;44.98;102165.69;5061136;28;45381;-62
2021/06/13 05:33:14;;;;;;;;;6.00;6.00;;;;;26.72;44.78;102168.44;5059876;28;45432;-63
2021/06/13 05:35:40;;;;;;;;;6.00;5.33;;;;;26.71;45.05;102156.91;5060322;28;45504;-63
2021/06/13 05:38:06;;;;;;;;;6.33;6.33;;;;;26.71;44.62;102167.56;5042160;28;45522;-65
2021/06/13 05:40:32;;;;;;;;;7.33;6.67;;;;;26.71;44.90;102162.22;5041111;28;45327;-65
2021/06/13 05:42:58;;;;;;;;;9.00;9.00;;;;;26.71;44.48;102167.56;5041258;28;45318;-65
2021/06/13 05:45:26;;;;;;;;;6.00;6.00;;;;;26.71;44.57;102166.72;5040997;28;45340;-64
2021/06/13 05:47:52;;;;;;;;;6.67;6.67;;;;;26.71;44.34;102180.03;5044509;28;45346;-64
2021/06/13 05:50:17;;;;;;;;;6.33;6.33;;;;;26.69;45.01;102164.13;5044545;28;45347;-64
2021/06/13 05:52:43;;;;;;;;;7.00;7.00;;;;;26.70;44.56;102179.13;5043196;28;45410;-64
2021/06/13 05:55:10;;;;;;;;;7.00;7.00;;;;;26.69;44.71;102177.44;5044550;28;45335;-63
2021/06/13 05:57:36;;;;;;;;;6.00;6.00;;;;;26.68;44.64;102173.06;5043579;28;45442;-63
2021/06/13 06:00:23;;;;;;;;;7.67;7.00;;;;;26.69;44.54;102179.22;5043845;28;45383;-62
2021/06/13 06:02:49;;;;;;;;;7.00;6.00;;;;;26.68;44.52;102181.03;5043101;28;45306;-63
2021/06/13 06:05:18;;;;;;;;;10.33;9.00;;;;;26.67;44.90;102176.66;5042989;28;45280;-64
2021/06/13 06:07:43;;;;;;;;;7.00;7.00;;;;;26.67;44.86;102187.31;5044447;28;45534;-63
2021/06/13 06:10:10;;;;;;;;;7.67;7.67;;;;;26.67;44.60;102189.97;5043944;28;46072;-64
2021/06/13 06:12:36;;;;;;;;;7.67;7.33;;;;;26.67;44.86;102189.97;5044232;28;45385;-63
2021/06/13 06:15:03;;;;;;;;;7.00;7.00;;;;;26.67;44.22;102189.09;5042646;28;45248;-63
2021/06/13 06:17:28;;;;;;;;;6.00;6.00;;;;;26.66;44.42;102192.69;5045238;28;45329;-63
2021/06/13 06:19:53;;;;;;;;;8.00;7.00;;;;;26.66;44.25;102196.22;5049879;28;65386;-63
2021/06/13 06:22:19;;;;;;;;;7.00;7.00;;;;;26.66;44.48;102195.34;5055174;28;54088;-63
2021/06/13 06:24:45;;;;;;;;;6.00;6.00;;;;;26.66;44.17;102204.22;5026173;28;45473;-63
2021/06/13 06:27:10;;;;;;;;;7.00;7.00;;;;;26.65;44.27;102202.47;5044334;28;45260;-65
2021/06/13 06:29:35;;;;;;;;;7.67;6.00;;;;;26.63;44.83;102197.19;5042447;28;45914;-64
2021/06/13 06:32:01;;;;;;;;;7.33;6.33;;;;;26.64;44.83;102198.09;5043439;28;52802;-64
2021/06/13 06:34:33;;;;;;;;;7.00;7.00;;;;;26.63;44.43;102205.19;5044304;28;45349;-64
2021/06/13 06:36:59;;;;;;;;;6.67;6.67;;;;;26.65;44.40;102204.25;5052959;28;45290;-64
2021/06/13 06:39:25;;;;;;;;;8.00;7.67;;;;;26.63;44.53;102210.50;5042798;28;45585;-61
2021/06/13 06:41:50;;;;;;;;;8.33;8.00;;;;;26.63;44.07;102207.84;5044253;28;45295;-61
2021/06/13 06:44:16;;;;;;;;;6.00;6.00;;;;;26.63;44.38;102207.84;5043556;28;54551;-61
2021/06/13 06:46:42;;;;;;;;;7.67;7.00;;;;;26.63;44.76;102209.66;5042791;28;45350;-62
2021/06/13 06:49:08;;;;;;;;;7.00;6.33;;;;;26.63;44.35;102217.66;5041486;28;45350;-61
2021/06/13 06:51:34;;;;;;;;;10.00;10.00;;;;;26.63;44.56;102210.50;5043568;28;45268;-63
2021/06/13 06:54:00;;;;;;;;;6.00;6.00;;;;;26.63;44.49;102209.66;5061738;28;45488;-62
2021/06/13 06:56:26;;;;;;;;;8.00;7.33;;;;;26.61;44.27;102208.88;5062765;28;45567;-61
2021/06/13 06:58:52;;;;;;;;;7.67;6.67;;;;;26.61;44.50;102207.09;5043241;28;46138;-62
2021/06/13 07:01:18;;;;;;;;;8.33;7.33;;;;;26.62;44.60;102213.25;5054473;28;45254;-62
2021/06/13 07:03:43;;;;;;;;;6.00;6.00;;;;;26.61;44.01;102208.88;5062410;28;45442;-62
2021/06/13 07:06:09;;;;;;;;;9.00;8.00;;;;;26.61;44.36;102201.78;5051204;28;45476;-62
2021/06/13 07:08:35;;;;;;;;;6.67;6.67;;;;;26.61;44.34;102204.44;5053390;28;46232;-62
2021/06/13 07:11:00;;;;;;;;;6.33;6.33;;;;;26.60;43.98;102208.03;5056252;28;50991;-57
2021/06/13 07:13:25;;;;;;;;;8.33;7.00;;;;;26.59;44.25;102216.06;5054558;28;45473;-58
2021/06/13 07:15:51;;;;;;;;;11.00;6.67;;;;;26.59;44.29;102208.06;5041516;28;45660;-58
2021/06/13 07:18:16;;;;;;;;;7.67;6.33;;;;;26.59;44.31;102213.41;5050379;28;59931;-59
2021/06/13 07:20:42;;;;;;;;;6.00;6.00;;;;;26.58;43.86;102214.34;5050147;28;57074;-59
2021/06/13 07:23:08;;;;;;;;;7.67;7.67;;;;;26.58;44.12;102214.34;5051759;28;45445;-59
2021/06/13 07:25:33;;;;;;;;;7.00;7.00;;;;;26.57;43.64;102213.47;5051020;28;46043;-63
2021/06/13 07:27:59;;;;;;;;;6.00;5.67;;;;;26.57;43.98;102216.16;5052989;28;45486;-59
2021/06/13 07:30:25;;;;;;;;;10.00;10.00;;;;;26.56;43.82;102210.88;5051832;28;45325;-59
2021/06/13 07:32:50;;;;;;;;;8.33;8.33;;;;;26.55;44.03;102215.34;5057276;28;45353;-59
2021/06/13 07:35:18;;;;;;;;;7.00;7.00;;;;;26.55;44.09;102228.66;5054213;28;45385;-59
2021/06/13 07:37:44;;;;;;;;;10.00;8.00;;;;;26.55;43.97;102225.13;5053891;28;48129;-60
2021/06/13 07:40:11;;;;;;;;;7.67;7.67;;;;;26.54;43.89;102228.75;5051954;28;45418;-61
2021/06/13 07:42:36;;;;;;;;;9.00;9.00;;;;;26.54;43.51;102220.75;5055382;28;45570;-61
2021/06/13 07:45:04;;;;;;;;;8.00;7.00;;;;;26.54;43.84;102223.41;5053428;28;45616;-63
2021/06/13 07:47:31;;;;;;;;;6.33;6.33;;;;;26.53;43.95;102219.03;5047623;28;47077;-69
2021/06/13 07:49:57;;;;;;;;;7.67;6.00;;;;;26.48;43.29;102217.44;5050360;28;45287;-69
2021/06/13 07:52:22;;;;;;;;;6.00;6.00;;;;;26.40;42.60;102219.56;5052148;28;45347;-73
2021/06/13 07:54:47;;;;;;;;;5.67;5.67;;;;;26.28;42.62;102220.13;5050698;28;45529;-71
2021/06/13 07:57:13;;;;;;;;;6.67;6.67;;;;;26.17;42.62;102212.63;5051206;28;45471;-64
2021/06/13 07:59:39;;;;;;;;;7.33;7.33;;;;;26.08;42.24;102211.22;5049656;28;45252;-67
2021/06/13 08:02:04;;;;;;;;;6.00;5.33;;;;;26.00;42.14;102213.34;5037242;28;45271;-71
2021/06/13 08:04:36;;;;;;;;;9.00;7.00;;;;;25.93;42.41;102217.22;5048836;28;45258;-67
2021/06/13 08:07:02;;;;;;;;;7.00;6.00;;;;;25.85;41.54;102217.56;5049732;28;47217;-59
2021/06/13 08:09:28;;;;;;;;;5.33;5.33;;;;;25.77;41.86;102222.31;5050934;28;45441;-63
2021/06/13 08:11:53;;;;;;;;;5.00;5.00;;;;;25.66;41.02;102220.13;5037137;28;45440;-62
2021/06/13 08:14:19;;;;;;;;;6.00;6.00;;;;;25.54;41.12;102213.53;5050182;28;49766;-63
2021/06/13 08:16:44;;;;;;;;;5.67;5.67;;;;;25.45;41.02;102217.44;5050870;28;45923;-63
2021/06/13 08:19:10;;;;;;;;;9.33;7.67;;;;;25.41;41.23;102216.69;5055423;28;50809;-63
2021/06/13 08:21:35;;;;;;;;;8.00;6.33;;;;;25.41;41.48;102213.16;5048941;28;45873;-63
2021/06/13 08:24:01;;;;;;;;;8.67;7.00;;;;;25.42;41.28;102217.56;5047714;28;45385;-63
2021/06/13 08:26:27;;;;;;;;;9.00;7.67;;;;;25.44;41.23;102213.06;5041367;28;45572;-63
2021/06/13 08:28:52;;;;;;;;;6.33;6.33;;;;;25.46;41.22;102211.22;5046038;28;45382;-63
2021/06/13 08:31:20;;;;;;;;;8.33;7.33;;;;;25.49;41.46;102208.41;5040187;28;45448;-64
2021/06/13 08:33:45;;;;;;;;;6.33;6.33;;;;;25.53;41.26;102214.47;5052529;28;45557;-63
2021/06/13 08:36:10;;;;;;;;;6.00;5.67;;;;;25.54;41.37;102219.72;5043729;28;49043;-63
2021/06/13 08:38:36;;;;;;;;;7.00;7.00;;;;;25.59;41.29;102216.84;5060332;28;45336;-63
2021/06/13 08:41:02;;;;;;;;;7.00;7.00;;;;;25.63;41.21;102212.28;5061899;28;45491;-63
2021/06/13 08:43:27;;;;;;;;;7.67;6.67;;;;;25.65;41.10;102207.75;5027244;28;45276;-63
2021/06/13 08:45:57;;;;;;;;;8.00;8.00;;;;;25.68;41.07;102212.94;5061472;28;45372;-63
2021/06/13 08:48:26;;;;;;;;;7.33;6.67;;;;;25.72;40.75;102206.56;5061793;28;45333;-64
2021/06/13 08:50:51;;;;;;;;;6.00;6.00;;;;;25.74;41.27;102204.72;5061896;28;45207;-63
2021/06/13 08:53:17;;;;;;;;;7.00;6.00;;;;;25.77;40.93;102201.94;5060732;28;45226;-64
2021/06/13 08:55:42;;;;;;;;;6.67;6.00;;;;;25.79;40.88;102202.69;5061707;28;45600;-63
2021/06/13 08:58:08;;;;;;;;;8.67;7.67;;;;;25.83;41.07;102200.81;5061604;28;45266;-64
2021/06/13 09:00:34;;;;;;;;;6.00;6.00;;;;;25.85;40.89;102196.28;5061513;28;45361;-64
2021/06/13 09:03:02;;;;;;;;;7.00;6.00;;;;;25.88;40.98;102193.47;5031404;28;45659;-63
2021/06/13 09:05:27;;;;;;;;;7.33;7.00;;;;;25.91;40.77;102203.97;5058807;28;46308;-63
2021/06/13 09:07:55;;;;;;;;;7.67;7.00;;;;;25.94;40.49;102205.66;5039359;28;45420;-63
2021/06/13 09:10:25;;;;;;;;;7.33;6.67;;;;;25.96;41.21;102202.00;5060284;28;45467;-64
2021/06/13 09:12:53;;;;;;;;;9.00;7.67;;;;;25.98;40.89;102200.13;5061852;28;45228;-63
2021/06/13 09:15:35;;;;;;;;;7.00;6.33;;;;;26.00;40.72;102195.63;5042895;28;47083;-64
2021/06/13 09:18:00;;;;;;;;;9.00;7.33;;;;;26.03;40.27;102183.97;5057439;28;45484;-69
2021/06/13 09:20:27;;;;;;;;;9.00;7.33;;;;;26.05;40.98;102178.56;5042075;28;46178;-65
2021/06/13 09:23:05;;;;;;;;;7.33;5.67;;;;;26.08;40.62;102176.66;5039888;28;45878;-65
2021/06/13 09:25:32;;;;;;;;;7.67;6.00;;;;;26.10;40.52;102180.06;5057898;28;46405;-67
2021/06/13 09:28:08;;;;;;;;;6.00;6.00;;;;;26.13;40.77;102169.34;5039599;28;45486;-67
2021/06/13 09:30:35;;;;;;;;;7.00;7.00;;;;;26.15;41.04;102183.44;5047536;28;45509;-74
2021/06/13 09:33:10;;;;;;;;;7.67;6.67;;;;;26.18;40.56;102171.78;5033182;28;45482;-74
2021/06/13 09:35:36;;;;;;;;;6.00;6.00;;;;;26.22;40.53;102191.16;5050899;28;47142;-68
2021/06/13 09:38:23;;;;;;;;;7.33;7.33;;;;;26.25;40.48;102186.56;5033156;28;45949;-69
2021/06/13 09:40:56;;;;;;;;;7.00;6.33;;;;;26.28;40.83;102186.41;5051413;28;45310;-68
2021/06/13 09:43:24;;;;;;;;;8.00;6.00;;;;;26.31;40.66;102180.06;5040729;28;45478;-64
2021/06/13 09:45:56;;;;;;;;;8.33;7.33;;;;;26.33;40.86;102183.53;5049630;28;47155;-73
2021/06/13 09:48:22;;;;;;;;;7.67;6.00;;;;;26.36;40.70;102186.06;5054173;28;45354;-73
2021/06/13 09:50:52;;;;;;;;;6.33;6.33;;;;;26.39;40.57;102185.06;5037348;28;45401;-75
2021/06/13 09:53:21;;;;;;;;;6.67;6.00;;;;;26.42;40.50;102187.56;5054290;28;45267;-69
2021/06/13 09:55:47;;;;;;;;;8.67;7.33;;;;;26.44;40.38;102181.25;5054444;28;45674;-69
2021/06/13 09:58:14;;;;;;;;;5.67;5.67;;;;;26.45;40.80;102174.97;5052269;28;45697;-73
2021/06/13 10:00:40;;;;;;;;;7.00;7.00;;;;;26.48;40.61;102182.84;5051034;28;45460;-69
2021/06/13 10:03:24;;;;;;;;;6.67;6.00;;;;;26.50;40.47;102181.91;5037726;28;45482;-68
2021/06/13 10:05:58;;;;;;;;;8.33;6.67;;;;;26.52;40.48;102172.03;5051374;28;46066;-68
2021/06/13 10:08:26;;;;;;;;;8.00;5.33;;;;;26.53;40.32;102174.63;5048353;28;45445;-68
2021/06/13 10:10:54;;;;;;;;;8.33;7.33;;;;;26.55;40.09;102169.22;5049281;28;45421;-69
2021/06/13 10:13:19;;;;;;;;;8.33;8.33;;;;;26.58;40.39;102169.06;5034928;28;45497;-69
2021/06/13 10:15:50;;;;;;;;;6.67;5.67;;;;;26.59;40.15;102173.47;5053140;28;45460;-70
2021/06/13 10:18:16;;;;;;;;;5.67;5.67;;;;;26.60;40.83;102168.09;5050308;28;45496;-72
2021/06/13 10:20:42;;;;;;;;;6.33;6.33;;;;;26.61;40.38;102161.84;5044340;28;45438;-70
2021/06/13 10:23:08;;;;;;;;;5.33;5.33;;;;;26.63;40.33;102170.59;5049636;28;45473;-73
2021/06/13 10:25:33;;;;;;;;;6.67;6.67;;;;;26.65;40.44;102164.31;5051666;28;68067;-71
2021/06/13 10:27:59;;;;;;;;;7.33;7.33;;;;;26.66;40.14;102166.06;5061011;28;45448;-71
2021/06/13 10:30:25;;;;;;;;;5.00;5.00;;;;;26.67;40.34;102166.00;5060386;28;45261;-74
2021/06/13 10:32:51;;;;;;;;;5.00;5.00;;;;;26.69;40.09;102155.25;5044668;28;45517;-67
2021/06/13 10:35:16;;;;;;;;;6.00;6.00;;;;;26.70;40.55;102152.50;5053663;28;46295;-65
2021/06/13 10:37:42;;;;;;;;;9.00;7.33;;;;;26.71;40.33;102154.25;5045814;28;45408;-64
2021/06/13 10:40:08;;;;;;;;;7.00;7.00;;;;;26.72;40.04;102145.31;5052441;28;45398;-62
2021/06/13 10:42:36;;;;;;;;;10.33;6.67;;;;;26.73;40.04;102147.03;5054277;28;45466;-62
2021/06/13 10:45:03;;;;;;;;;7.00;7.00;;;;;26.75;40.83;102152.31;5033960;28;47648;-63
2021/06/13 10:47:30;;;;;;;;;6.33;6.00;;;;;26.75;39.92;102147.84;5048843;28;45274;-62
2021/06/13 10:49:55;;;;;;;;;8.33;6.33;;;;;26.77;40.40;102150.44;5050425;28;45370;-62
2021/06/13 10:52:25;;;;;;;;;8.00;7.00;;;;;26.77;40.03;102139.78;5051673;28;45210;-64
2021/06/13 10:54:50;;;;;;;;;4.33;4.33;;;;;26.79;39.78;102137.94;5053945;28;46285;-63
2021/06/13 10:57:16;;;;;;;;;6.00;6.00;;;;;26.80;40.00;102138.81;5052683;28;45426;-65
2021/06/13 10:59:49;;;;;;;;;6.00;6.00;;;;;26.79;40.09;102127.28;5051917;28;45633;-67
2021/06/13 11:02:21;;;;;;;;;8.00;7.33;;;;;26.81;40.39;102125.41;5055111;28;45796;-68
2021/06/13 11:04:53;;;;;;;;;5.33;5.33;;;;;26.82;39.74;102134.28;5051983;28;47013;-68
2021/06/13 11:07:27;;;;;;;;;7.00;6.00;;;;;26.82;40.19;102129.78;5053297;28;45405;-67
2021/06/13 11:10:05;;;;;;;;;5.33;5.33;;;;;26.83;39.80;102128.00;5053081;28;45520;-63
2021/06/13 11:12:51;;;;;;;;;7.33;6.00;;;;;26.84;40.07;102127.06;5053243;28;45384;-64
2021/06/13 11:15:22;;;;;;;;;5.00;5.00;;;;;26.84;39.84;102129.75;5054344;28;45416;-63
2021/06/13 11:17:55;;;;;;;;;5.00;5.00;;;;;26.83;39.79;102131.53;5053786;28;45600;-66
2021/06/13 11:23:08;;;;;;;;;7.00;6.00;;;;;26.83;39.97;102120.88;5052051;28;45386;-66
2021/06/13 11:25:38;;;;;;;;;8.00;7.00;;;;;26.85;39.79;102126.13;5052119;28;45424;-63
2021/06/13 11:28:33;;;;;;;;;7.67;7.00;;;;;26.84;40.13;102122.59;5042751;28;45445;-63